createdAt,value
2023-01-11T00:00:45.728Z,100345.03
2023-01-11T00:03:13.466Z,100358.16
2023-01-11T00:05:42.497Z,100351.19
2023-01-11T00:08:10.814Z,100347.69
2023-01-11T00:10:38.630Z,100328.50
2023-01-11T00:13:06.095Z,100330.25
2023-01-11T00:15:36.764Z,100330.28
2023-01-11T00:18:04.024Z,100321.56
2023-01-11T00:20:31.229Z,100332.94
2023-01-11T00:22:58.555Z,100318.94
2023-01-11T00:25:28.614Z,100327.69
2023-01-11T00:27:55.920Z,100310.22
2023-01-11T00:30:23.594Z,100301.53
2023-01-11T00:32:58.631Z,100291.03
2023-01-11T00:35:27.880Z,100286.72
2023-01-11T00:37:55.256Z,100285.84
2023-01-11T00:40:24.268Z,100284.09
2023-01-11T00:43:10.061Z,100291.09
2023-01-11T00:45:56.484Z,100278.00
2023-01-11T00:48:23.885Z,100278.91
2023-01-11T00:50:55.580Z,100266.66
2023-01-11T00:53:23.574Z,100266.69
2023-01-11T00:55:50.878Z,100257.97
2023-01-11T00:58:18.208Z,100271.09
2023-01-11T01:00:45.578Z,100268.47
2023-01-11T01:03:12.941Z,100274.59
2023-01-11T01:05:43.318Z,100275.50
2023-01-11T01:08:10.626Z,100276.38
2023-01-11T01:10:38.036Z,100266.75
2023-01-11T01:13:23.827Z,100270.25
2023-01-11T01:15:58.222Z,100274.66
2023-01-11T01:18:25.602Z,100277.31
2023-01-11T01:20:52.871Z,100273.81
2023-01-11T01:23:20.293Z,100281.69
2023-01-11T01:25:47.852Z,100272.06
2023-01-11T01:28:15.172Z,100277.31
2023-01-11T01:30:42.455Z,100290.44
2023-01-11T01:33:10.279Z,100283.47
2023-01-11T01:35:38.860Z,100286.97
2023-01-11T01:38:06.176Z,100282.59
2023-01-11T01:40:41.585Z,100285.25
2023-01-11T01:43:17.074Z,100279.09
2023-01-11T01:45:44.798Z,100276.50
2023-01-11T01:48:16.083Z,100276.50
2023-01-11T01:50:55.597Z,100271.28
2023-01-11T01:53:40.683Z,100276.50
2023-01-11T01:56:24.243Z,100275.66
2023-01-11T01:59:00.624Z,100279.16
2023-01-11T02:01:46.634Z,100272.16
2023-01-11T02:04:23.541Z,100277.41
2023-01-11T02:06:57.709Z,100268.69
2023-01-11T02:09:40.343Z,100273.06
2023-01-11T02:12:08.581Z,100262.56
2023-01-11T02:14:37.922Z,100269.56
2023-01-11T02:17:05.801Z,100264.34
2023-01-11T02:19:38.607Z,100262.59
2023-01-11T02:22:15.056Z,100256.47
2023-01-11T02:25:15.652Z,100258.22
2023-01-11T02:28:04.141Z,100253.84
2023-01-11T02:30:44.496Z,100247.72
2023-01-11T02:33:46.201Z,100255.63
2023-01-11T02:36:52.393Z,100253.00
2023-01-11T02:39:33.818Z,100250.41
2023-01-11T02:42:27.757Z,100247.75
2023-01-11T02:45:13.446Z,100248.63
2023-01-11T02:48:05.412Z,100250.44
2023-01-11T02:50:42.699Z,100260.94
2023-01-11T02:53:23.568Z,100253.97
2023-01-11T02:55:53.032Z,100259.22
2023-01-11T02:58:23.851Z,100261.84
2023-01-11T03:00:55.866Z,100263.59
2023-01-11T03:03:30.673Z,100263.63
2023-01-11T03:06:03.440Z,100257.47
2023-01-11T03:09:08.913Z,100261.84
2023-01-11T03:12:10.142Z,100269.75
2023-01-11T03:15:04.964Z,100260.13
2023-01-11T03:17:44.708Z,100268.88
2023-01-11T03:20:21.102Z,100268.00
2023-01-11T03:23:36.022Z,100273.28
2023-01-11T03:26:36.654Z,100274.16
2023-01-11T03:29:13.190Z,100286.41
2023-01-11T03:32:01.590Z,100280.28
2023-01-11T03:34:34.595Z,100285.53
2023-01-11T03:37:31.546Z,100292.53
2023-01-11T03:40:04.014Z,100295.19
2023-01-11T03:42:56.542Z,100299.53
2023-01-11T03:45:26.899Z,100296.91
2023-01-11T03:47:55.770Z,100293.41
2023-01-11T03:50:23.597Z,100296.91
2023-01-11T03:52:52.472Z,100305.69
2023-01-11T03:55:24.607Z,100318.81
2023-01-11T03:57:54.848Z,100317.97
2023-01-11T04:00:23.142Z,100316.22
2023-01-11T04:02:50.459Z,100322.31
2023-01-11T04:05:17.734Z,100321.47
2023-01-11T04:07:45.052Z,100328.44
2023-01-11T04:10:12.461Z,100333.72
2023-01-11T04:12:39.731Z,100334.63
2023-01-11T04:15:09.479Z,100332.84
2023-01-11T04:17:36.876Z,100332.84
2023-01-11T04:20:04.636Z,100344.25
2023-01-11T04:22:31.987Z,100340.75
2023-01-11T04:24:59.655Z,100353.88
2023-01-11T04:27:27.427Z,100363.53
2023-01-11T04:29:54.730Z,100355.66
2023-01-11T04:32:22.418Z,100357.41
2023-01-11T04:34:50.590Z,100353.03
2023-01-11T04:37:17.886Z,100358.28
2023-01-11T04:39:45.194Z,100357.41
2023-01-11T04:42:18.454Z,100358.28
2023-01-11T04:44:48.821Z,100366.16
2023-01-11T04:47:17.202Z,100374.03
2023-01-11T04:49:45.659Z,100377.53
2023-01-11T04:52:15.185Z,100380.16
2023-01-11T04:54:42.784Z,100388.91
2023-01-11T04:57:15.156Z,100384.53
2023-01-11T04:59:42.828Z,100388.91
2023-01-11T05:02:10.065Z,100398.53
2023-01-11T05:04:38.469Z,100389.75
2023-01-11T05:07:08.061Z,100399.38
2023-01-11T05:09:35.781Z,100398.50
2023-01-11T05:12:03.258Z,100403.75
2023-01-11T05:14:30.615Z,100415.13
2023-01-11T05:16:58.874Z,100418.66
2023-01-11T05:19:28.905Z,100420.38
2023-01-11T05:21:56.482Z,100420.38
2023-01-11T05:24:23.925Z,100434.38
2023-01-11T05:26:52.473Z,100433.50
2023-01-11T05:29:21.196Z,100435.22
2023-01-11T05:31:49.073Z,100436.97
2023-01-11T05:34:17.500Z,100438.69
2023-01-11T05:36:45.280Z,100436.06
2023-01-11T05:39:14.298Z,100450.06
2023-01-11T05:41:41.744Z,100450.06
2023-01-11T05:44:45.388Z,100450.91
2023-01-11T05:47:12.627Z,100455.28
2023-01-11T05:49:40.348Z,100443.91
2023-01-11T05:52:07.995Z,100447.38
2023-01-11T05:54:35.708Z,100457.03
2023-01-11T05:57:03.161Z,100459.66
2023-01-11T05:59:32.174Z,100465.75
2023-01-11T06:01:59.979Z,100463.13
2023-01-11T06:04:30.245Z,100460.50
2023-01-11T06:06:57.540Z,100468.38
2023-01-11T06:09:25.266Z,100467.50
2023-01-11T06:11:52.531Z,100468.31
2023-01-11T06:14:19.780Z,100470.13
2023-01-11T06:16:47.135Z,100464.88
2023-01-11T06:19:15.814Z,100469.19
2023-01-11T06:21:43.082Z,100463.97
2023-01-11T06:24:10.424Z,100485.88
2023-01-11T06:26:41.233Z,100487.63
2023-01-11T06:29:08.401Z,100479.75
2023-01-11T06:31:36.288Z,100492.00
2023-01-11T06:34:03.629Z,100489.38
2023-01-11T06:36:30.953Z,100505.16
2023-01-11T06:38:58.310Z,100503.38
2023-01-11T06:41:25.677Z,100502.53
2023-01-11T06:43:53.034Z,100500.78
2023-01-11T06:46:21.170Z,100510.44
2023-01-11T06:48:48.626Z,100519.16
2023-01-11T06:51:16.517Z,100522.69
2023-01-11T06:53:44.699Z,100513.94
2023-01-11T06:56:14.925Z,100515.72
2023-01-11T06:58:43.201Z,100520.06
2023-01-11T07:01:11.827Z,100529.72
2023-01-11T07:03:40.349Z,100538.44
2023-01-11T07:06:07.997Z,100540.19
2023-01-11T07:08:35.320Z,100532.31
2023-01-11T07:11:02.654Z,100530.56
2023-01-11T07:13:30.280Z,100542.81
2023-01-11T07:15:57.998Z,100546.34
2023-01-11T07:18:25.507Z,100542.81
2023-01-11T07:20:53.365Z,100549.81
2023-01-11T07:23:23.265Z,100558.59
2023-01-11T07:25:50.643Z,100555.94
2023-01-11T07:28:18.025Z,100557.69
2023-01-11T07:30:57.380Z,100550.63
2023-01-11T07:33:27.950Z,100554.06
2023-01-11T07:35:55.461Z,100548.81
2023-01-11T07:38:24.696Z,100554.88
2023-01-11T07:40:52.125Z,100564.50
2023-01-11T07:43:21.547Z,100562.72
2023-01-11T07:45:51.420Z,100555.72
2023-01-11T07:48:27.347Z,100570.56
2023-01-11T07:50:55.390Z,100574.06
2023-01-11T07:53:25.845Z,100569.69
2023-01-11T07:55:55.383Z,100572.31
2023-01-11T07:58:22.960Z,100588.06
2023-01-11T08:00:50.349Z,100588.06
2023-01-11T08:03:17.813Z,100587.19
2023-01-11T08:05:49.745Z,100600.31
2023-01-11T08:08:17.073Z,100608.19
2023-01-11T08:10:44.310Z,100607.31
2023-01-11T08:13:34.494Z,100619.53
2023-01-11T08:16:01.857Z,100615.13
2023-01-11T08:18:29.123Z,100623.00
2023-01-11T08:20:56.402Z,100623.84
2023-01-11T08:23:23.857Z,100625.56
2023-01-11T08:25:56.860Z,100636.06
2023-01-11T08:28:24.610Z,100637.81
2023-01-11T08:30:51.944Z,100635.19
2023-01-11T08:33:19.281Z,100630.81
2023-01-11T08:35:46.638Z,100630.78
2023-01-11T08:38:14.115Z,100643.91
2023-01-11T08:40:41.794Z,100651.78
2023-01-11T08:43:10.045Z,100650.91
2023-01-11T08:45:37.839Z,100656.16
2023-01-11T08:48:05.670Z,100646.50
2023-01-11T08:50:33.533Z,100653.50
2023-01-11T08:53:01.208Z,100654.38
2023-01-11T08:55:31.412Z,100658.72
2023-01-11T08:57:58.864Z,100665.72
2023-01-11T09:00:26.693Z,100669.16
2023-01-11T09:02:54.043Z,100663.06
2023-01-11T09:05:21.698Z,100670.94
2023-01-11T09:07:48.932Z,100670.06
2023-01-11T09:10:16.389Z,100672.69
2023-01-11T09:12:43.842Z,100676.22
2023-01-11T09:15:11.603Z,100677.09
2023-01-11T09:17:39.116Z,100681.47
2023-01-11T09:20:06.949Z,100684.94
2023-01-11T09:22:35.095Z,100676.16
2023-01-11T09:25:02.911Z,100681.38
2023-01-11T09:27:30.543Z,100682.22
2023-01-11T09:29:57.840Z,100688.34
2023-01-11T09:32:25.188Z,100697.13
2023-01-11T09:34:57.257Z,100701.56
2023-01-11T09:37:25.004Z,100704.19
2023-01-11T09:39:52.710Z,100701.56
2023-01-11T09:42:39.154Z,100703.31
2023-01-11T09:45:13.225Z,100715.50
2023-01-11T09:48:01.333Z,100714.59
2023-01-11T09:50:32.485Z,100722.47
2023-01-11T09:53:05.006Z,100722.47
2023-01-11T09:55:43.347Z,100722.47
2023-01-11T09:58:29.279Z,100719.94
2023-01-11T10:01:12.474Z,100726.06
2023-01-11T10:04:08.069Z,100730.50
2023-01-11T10:06:55.979Z,100726.19
2023-01-11T10:18:22.683Z,100729.88
2023-01-11T10:19:32.147Z,100732.50
2023-01-11T10:22:31.798Z,100728.16
2023-01-11T10:25:28.058Z,100730.88
2023-01-11T10:28:06.082Z,100724.78
2023-01-11T10:30:57.547Z,100730.06
2023-01-11T10:33:47.816Z,100729.25
2023-01-11T10:37:21.424Z,100724.00
2023-01-11T10:40:28.471Z,100722.28
2023-01-11T10:43:17.171Z,100731.97
2023-01-11T10:45:50.484Z,100725.88
2023-01-11T10:48:39.770Z,100737.31
2023-01-11T10:51:30.125Z,100727.66
2023-01-11T10:54:16.257Z,100732.97
2023-01-11T10:57:23.123Z,100722.47
2023-01-11T10:59:57.166Z,100724.25
2023-01-11T11:02:49.454Z,100719.88
2023-01-11T11:06:19.711Z,100725.16
2023-01-11T11:08:59.701Z,100727.84
2023-01-11T11:11:41.184Z,100729.63
2023-01-11T11:14:18.996Z,100738.44
2023-01-11T11:16:57.379Z,100740.25
2023-01-11T11:19:30.599Z,100740.25
2023-01-11T11:21:58.066Z,100745.50
2023-01-11T11:24:47.092Z,100743.75
2023-01-11T11:27:26.609Z,100753.34
2023-01-11T11:29:57.108Z,100752.50
2023-01-11T11:32:37.615Z,100749.03
2023-01-11T11:35:07.797Z,100749.91
2023-01-11T11:37:40.702Z,100754.28
2023-01-11T11:40:36.906Z,100749.88
2023-01-11T11:43:14.784Z,100757.75
2023-01-11T11:45:52.149Z,100760.41
2023-01-11T11:48:20.053Z,100754.25
2023-01-11T11:50:49.568Z,100758.66
2023-01-11T11:53:43.279Z,100752.53
2023-01-11T11:56:29.608Z,100762.13
2023-01-11T11:58:58.675Z,100758.66
2023-01-11T12:01:34.147Z,100753.44
2023-01-11T12:04:24.002Z,100754.31
2023-01-11T12:07:07.943Z,100762.25
2023-01-11T12:09:36.610Z,100760.53
2023-01-11T12:12:04.535Z,100758.81
2023-01-11T12:14:36.561Z,100757.97
2023-01-11T12:17:24.038Z,100775.47
2023-01-11T12:19:51.929Z,100770.16
2023-01-11T12:22:24.312Z,100764.91
2023-01-11T12:25:13.863Z,100763.09
2023-01-11T12:28:05.961Z,100757.78
2023-01-11T12:31:03.491Z,100762.97
2023-01-11T12:33:48.109Z,100756.81
2023-01-11T12:36:54.444Z,100765.53
2023-01-11T12:39:54.486Z,100761.16
2023-01-11T12:42:49.638Z,100763.75
2023-01-11T12:45:19.896Z,100760.28
2023-01-11T12:48:17.399Z,100764.69
2023-01-11T12:51:05.129Z,100771.78
2023-01-11T12:54:10.991Z,100768.34
2023-01-11T12:57:11.084Z,100771.88
2023-01-11T13:00:02.996Z,100762.22
2023-01-11T13:02:45.508Z,100769.19
2023-01-11T13:05:28.015Z,100774.44
2023-01-11T13:08:21.993Z,100772.69
2023-01-11T13:11:34.054Z,100780.53
2023-01-11T13:14:33.676Z,100774.41
2023-01-11T13:17:04.625Z,100779.56
2023-01-11T13:20:09.802Z,100782.19
2023-01-11T13:22:42.259Z,100779.50
2023-01-11T13:25:26.792Z,100779.47
2023-01-11T13:27:57.237Z,100786.41
2023-01-11T13:30:25.369Z,100775.88
2023-01-11T13:33:07.108Z,100778.44
2023-01-11T13:35:41.171Z,100775.75
2023-01-11T13:38:34.831Z,100787.97
2023-01-11T13:41:15.354Z,100786.19
2023-01-11T13:43:54.060Z,100795.84
2023-01-11T13:46:31.323Z,100790.59
2023-01-11T13:49:04.169Z,100786.22
2023-01-11T13:51:40.167Z,100792.38
2023-01-11T13:54:25.487Z,100794.13
2023-01-11T13:57:00.941Z,100781.84
2023-01-11T13:59:37.803Z,100791.50
2023-01-11T14:02:14.598Z,100772.19
2023-01-11T14:05:22.036Z,100781.91
2023-01-11T14:08:22.692Z,100780.16
2023-01-11T14:11:15.868Z,100779.31
2023-01-11T14:14:16.463Z,100778.44
2023-01-11T14:16:59.013Z,100776.66
2023-01-11T14:19:44.580Z,100772.25
2023-01-11T14:22:28.779Z,100773.06
2023-01-11T14:25:22.311Z,100780.88
2023-01-11T14:28:12.397Z,100780.72
2023-01-11T14:30:49.188Z,100779.81
2023-01-11T14:33:50.572Z,100774.59
2023-01-11T14:36:51.953Z,100773.72
2023-01-11T14:39:50.250Z,100765.75
2023-01-11T14:42:45.387Z,100785.81
2023-01-11T14:45:19.882Z,100766.50
2023-01-11T14:48:05.172Z,100776.13
2023-01-11T14:50:50.872Z,100772.53
2023-01-11T14:53:24.009Z,100777.75
2023-01-11T14:55:51.935Z,100782.09
2023-01-11T14:58:32.052Z,100782.91
2023-01-11T15:01:00.035Z,100783.72
2023-01-11T15:03:43.031Z,100786.31
2023-01-11T15:06:20.583Z,100785.44
2023-01-11T15:08:51.233Z,100786.31
2023-01-11T15:11:29.761Z,100795.00
2023-01-11T15:14:23.097Z,100782.69
2023-01-11T15:17:13.330Z,100791.47
2023-01-11T15:19:43.723Z,100795.81
2023-01-11T15:22:28.263Z,100787.91
2023-01-11T15:24:59.812Z,100789.66
2023-01-11T15:27:38.414Z,100780.88
2023-01-11T15:30:27.754Z,100790.47
2023-01-11T15:33:17.780Z,100795.59
2023-01-11T15:35:57.507Z,100800.78
2023-01-11T15:38:34.038Z,100808.59
2023-01-11T15:41:22.719Z,100805.00
2023-01-11T15:44:02.670Z,100804.06
2023-01-11T15:47:24.762Z,100791.78
2023-01-11T15:50:13.485Z,100786.44
2023-01-11T15:52:50.681Z,100776.78
2023-01-11T15:55:42.894Z,100777.56
2023-01-11T15:58:35.621Z,100777.50
2023-01-11T16:01:25.611Z,100767.78
2023-01-11T16:04:12.001Z,100772.09
2023-01-11T16:06:57.335Z,100766.75
2023-01-11T16:09:51.484Z,100774.59
2023-01-11T16:12:40.786Z,100776.34
2023-01-11T16:15:44.197Z,100782.47
2023-01-11T16:18:15.435Z,100788.59
2023-01-11T16:20:54.557Z,100795.56
2023-01-11T16:23:23.977Z,100787.69
2023-01-11T16:25:56.513Z,100798.16
2023-01-11T16:28:25.489Z,100793.75
2023-01-11T16:31:01.537Z,100796.34
2023-01-11T16:33:31.696Z,100797.16
2023-01-11T16:36:10.055Z,100802.38
2023-01-11T16:38:47.106Z,100798.03
2023-01-11T16:41:18.519Z,100798.00
2023-01-11T16:43:59.875Z,100806.72
2023-01-11T16:46:45.815Z,100819.81
2023-01-11T16:49:19.837Z,100802.34
2023-01-11T16:51:49.770Z,100815.47
2023-01-11T16:54:28.844Z,100809.38
2023-01-11T16:56:57.948Z,100815.47
2023-01-11T16:59:33.961Z,100819.84
2023-01-11T17:02:03.839Z,100807.59
2023-01-11T17:04:35.836Z,100806.63
2023-01-11T17:07:22.476Z,100810.03
2023-01-11T17:09:50.186Z,100799.50
2023-01-11T17:12:26.893Z,100800.38
2023-01-11T17:15:12.994Z,100802.09
2023-01-11T17:17:40.563Z,100798.59
2023-01-11T17:20:20.233Z,100805.59
2023-01-11T17:22:50.683Z,100808.25
2023-01-11T17:25:22.721Z,100808.25
2023-01-11T17:28:00.999Z,100815.28
2023-01-11T17:30:30.431Z,100807.44
2023-01-11T17:32:59.735Z,100803.03
2023-01-11T17:35:30.498Z,100798.63
2023-01-11T17:38:00.726Z,100800.34
2023-01-11T17:40:40.279Z,100798.59
2023-01-11T17:43:39.771Z,100798.66
2023-01-11T17:46:09.876Z,100782.94
2023-01-11T17:48:40.406Z,100784.75
2023-01-11T17:51:08.428Z,100779.53
2023-01-11T17:53:38.227Z,100788.28
2023-01-11T17:56:13.136Z,100789.16
2023-01-11T17:58:40.517Z,100769.09
2023-01-11T18:01:18.460Z,100767.31
2023-01-11T18:03:58.957Z,100777.81
2023-01-11T18:06:45.169Z,100772.56
2023-01-11T18:09:23.252Z,100776.06
2023-01-11T18:11:52.163Z,100761.19
2023-01-11T18:14:25.416Z,100753.28
2023-01-11T18:16:57.591Z,100755.94
2023-01-11T18:19:41.556Z,100751.53
2023-01-11T18:22:42.882Z,100746.28
2023-01-11T18:25:19.430Z,100738.44
2023-01-11T18:27:47.735Z,100740.16
2023-01-11T18:30:30.943Z,100731.50
2023-01-11T18:33:02.004Z,100735.88
2023-01-11T18:35:30.084Z,100723.69
2023-01-11T18:37:57.365Z,100708.84
2023-01-11T18:40:24.728Z,100714.97
2023-01-11T18:42:53.905Z,100702.72
2023-01-11T18:45:22.053Z,100712.31
2023-01-11T18:47:49.507Z,100701.00
2023-01-11T18:50:19.530Z,100708.00
2023-01-11T18:52:47.151Z,100696.69
2023-01-11T18:55:15.360Z,100693.25
2023-01-11T18:57:42.775Z,100680.19
2023-01-11T19:00:15.193Z,100674.94
2023-01-11T19:02:43.922Z,100667.06
2023-01-11T19:05:13.583Z,100668.81
2023-01-11T19:07:40.941Z,100666.22
2023-01-11T19:10:10.901Z,100651.34
2023-01-11T19:12:38.151Z,100643.53
2023-01-11T19:15:05.987Z,100642.66
2023-01-11T19:17:33.670Z,100630.47
2023-01-11T19:20:01.228Z,100629.59
2023-01-11T19:22:28.661Z,100626.13
2023-01-11T19:24:56.430Z,100624.41
2023-01-11T19:27:23.887Z,100601.69
2023-01-11T19:29:52.711Z,100600.00
2023-01-11T19:32:25.178Z,100611.38
2023-01-11T19:34:53.628Z,100610.53
2023-01-11T19:37:20.969Z,100601.81
2023-01-11T19:39:48.351Z,100600.09
2023-01-11T19:42:17.772Z,100585.25
2023-01-11T19:44:45.383Z,100592.31
2023-01-11T19:47:15.969Z,100583.59
2023-01-11T19:49:44.274Z,100569.66
2023-01-11T19:52:14.251Z,100571.41
2023-01-11T19:54:42.956Z,100562.69
2023-01-11T19:57:15.287Z,100567.91
2023-01-11T19:59:42.698Z,100559.16
2023-01-11T20:02:17.487Z,100559.13
2023-01-11T20:04:44.977Z,100556.44
2023-01-11T20:07:14.065Z,100567.75
2023-01-11T20:09:41.467Z,100577.31
2023-01-11T20:12:11.626Z,100577.31
2023-01-11T20:14:40.677Z,100583.34
2023-01-11T20:17:10.755Z,100586.78
2023-01-11T20:19:38.492Z,100587.59
2023-01-11T20:22:06.167Z,100584.09
2023-01-11T20:24:34.807Z,100572.69
2023-01-11T20:27:03.575Z,100564.78
2023-01-11T20:29:30.998Z,100564.72
2023-01-11T20:32:18.696Z,100556.84
2023-01-11T20:34:46.464Z,100553.31
2023-01-11T20:37:15.091Z,100560.28
2023-01-11T20:39:42.827Z,100542.78
2023-01-11T20:42:12.521Z,100534.91
2023-01-11T20:44:40.153Z,100536.66
2023-01-11T20:47:07.469Z,100540.09
2023-01-11T20:49:35.031Z,100539.22
2023-01-11T20:52:02.512Z,100517.38
2023-01-11T20:54:29.967Z,100520.84
2023-01-11T20:57:02.162Z,100515.59
2023-01-11T20:59:32.434Z,100522.63
2023-01-11T21:02:00.127Z,100520.00
2023-01-11T21:04:28.037Z,100515.63
2023-01-11T21:06:55.326Z,100531.34
2023-01-11T21:09:22.799Z,100526.97
2023-01-11T21:11:54.071Z,100518.28
2023-01-11T21:14:22.618Z,100519.19
2023-01-11T21:16:50.069Z,100525.28
2023-01-11T21:19:17.535Z,100509.59
2023-01-11T21:21:44.895Z,100510.50
2023-01-11T21:24:14.570Z,100503.50
2023-01-11T21:26:43.588Z,100513.97
2023-01-11T21:29:11.918Z,100522.69
2023-01-11T21:31:39.844Z,100504.34
2023-01-11T21:34:07.985Z,100484.22
2023-01-11T21:36:35.467Z,100488.63
2023-01-11T21:39:04.022Z,100486.00
2023-01-11T21:41:51.402Z,100472.91
2023-01-11T21:44:20.734Z,100476.41
2023-01-11T21:46:49.221Z,100465.94
2023-01-11T21:49:17.771Z,100461.63
2023-01-11T21:51:45.646Z,100459.00
2023-01-11T21:54:15.083Z,100466.91
2023-01-11T21:56:42.423Z,100465.16
2023-01-11T21:59:10.881Z,100466.09
2023-01-11T22:01:40.907Z,100460.00
2023-01-11T22:04:10.542Z,100464.41
2023-01-11T22:06:42.341Z,100474.94
2023-01-11T22:09:11.632Z,100474.09
2023-01-11T22:11:39.949Z,100461.91
2023-01-11T22:14:08.798Z,100468.88
2023-01-11T22:16:38.591Z,100463.66
2023-01-11T22:19:07.696Z,100469.78
2023-01-11T22:21:37.107Z,100469.78
2023-01-11T22:24:06.862Z,100477.66
2023-01-11T22:26:38.579Z,100489.00
2023-01-11T22:29:17.029Z,100483.75
2023-01-11T22:31:47.103Z,100490.75
2023-01-11T22:34:15.702Z,100487.22
2023-01-11T22:36:43.951Z,100481.13
2023-01-11T22:39:13.427Z,100484.63
2023-01-11T22:41:40.877Z,100481.97
2023-01-11T22:44:09.362Z,100479.28
2023-01-11T22:46:37.685Z,100493.19
2023-01-11T22:49:08.734Z,100475.63
2023-01-11T22:51:38.490Z,100500.00
2023-01-11T22:54:05.864Z,100496.41
2023-01-11T22:56:33.836Z,100503.19
2023-01-11T22:59:02.215Z,100496.09
2023-01-11T23:01:30.997Z,100496.03
2023-01-11T23:03:59.682Z,100502.13
2023-01-11T23:06:40.352Z,100512.56
2023-01-11T23:09:10.497Z,100511.66
2023-01-11T23:11:58.409Z,100530.03
2023-01-11T23:14:30.689Z,100519.56
2023-01-11T23:17:18.788Z,100518.78
2023-01-11T23:19:46.199Z,100520.56
2023-01-11T23:22:15.623Z,100525.78
2023-01-11T23:24:43.256Z,100517.97
2023-01-11T23:27:10.786Z,100535.38
2023-01-11T23:29:38.225Z,100535.38
2023-01-11T23:32:05.723Z,100531.91
2023-01-11T23:34:33.592Z,100528.38
2023-01-11T23:37:02.363Z,100546.63
2023-01-11T23:39:30.738Z,100538.75
2023-01-11T23:42:16.784Z,100536.94
2023-01-11T23:44:46.857Z,100532.47
2023-01-11T23:47:24.982Z,100534.16
2023-01-11T23:49:54.647Z,100528.84
2023-01-11T23:52:25.070Z,100520.91
2023-01-11T23:54:52.679Z,100514.75
2023-01-11T23:57:25.566Z,100536.50
2023-01-11T23:59:53.072Z,100523.44
